Time;durP1;ratioP1;P1;durP2;ratioP2;P2;SDS_P1;SDS_P2;PMS_P1;PMS_P2;Temp;Humidity;BMP_temperature;BMP_pressure;BME280_temperature;BME280_humidity;BME280_pressure;Samples;Min_cycle;Max_cycle;Signal;HPM_P1;HPM_P2
2022/01/13 00:02:10;;;;;;;34.67;16.23;;;4.60;99.90;;;;;;5074652;28;20032;-77
2022/01/13 00:04:36;;;;;;;45.40;18.52;;;4.60;99.90;;;;;;5106721;28;20040;-77
2022/01/13 00:07:02;;;;;;;50.97;19.85;;;4.60;99.90;;;;;;5099270;28;20042;-76
2022/01/13 00:09:28;;;;;;;28.52;13.93;;;4.60;99.90;;;;;;5094645;28;20075;-76
2022/01/13 00:11:55;;;;;;;40.58;16.48;;;4.60;99.90;;;;;;5108762;28;20032;-77
2022/01/13 00:22:15;;;;;;;32.13;16.17;;;4.60;99.90;;;;;;5110780;28;20048;-77
2022/01/13 00:24:44;;;;;;;37.05;17.63;;;4.20;99.90;;;;;;5088977;28;20044;-78
2022/01/13 00:27:12;;;;;;;51.50;18.95;;;4.60;99.90;;;;;;5087781;28;20040;-78
2022/01/13 00:29:41;;;;;;;34.80;17.63;;;6.60;99.90;;;;;;5101717;28;20083;-77
2022/01/13 00:32:09;;;;;;;36.50;16.75;;;4.60;99.90;;;;;;5111425;28;20122;-77
2022/01/13 00:34:36;;;;;;;34.05;15.68;;;4.30;99.90;;;;;;5105316;28;20078;-77
2022/01/13 00:37:02;;;;;;;41.78;19.70;;;6.10;99.90;;;;;;5099358;28;20040;-77
2022/01/13 00:39:28;;;;;;;46.22;21.42;;;4.70;99.90;;;;;;5105930;28;20373;-77
2022/01/13 00:41:53;;;;;;;48.25;21.35;;;4.70;99.90;;;;;;5093714;28;20130;-77
2022/01/13 00:44:21;;;;;;;40.63;17.95;;;4.70;99.90;;;;;;5095251;28;20036;-77
2022/01/13 00:46:54;;;;;;;53.05;23.73;;;4.70;99.90;;;;;;5074064;28;20036;-77
2022/01/13 00:49:20;;;;;;;62.80;25.40;;;4.70;99.90;;;;;;5075817;28;20396;-78
2022/01/13 00:51:46;;;;;;;40.72;19.35;;;4.70;99.90;;;;;;5075322;28;20124;-78
2022/01/13 00:54:11;;;;;;;41.88;20.90;;;4.80;99.90;;;;;;5090838;28;20113;-78
2022/01/13 00:56:38;;;;;;;54.75;25.98;;;4.70;99.90;;;;;;5108059;28;20035;-78
2022/01/13 00:59:07;;;;;;;49.10;20.35;;;6.80;99.90;;;;;;5081530;28;20101;-77
2022/01/13 01:01:39;;;;;;;53.80;22.05;;;4.90;99.90;;;;;;5091062;28;20104;-77
2022/01/13 01:04:05;;;;;;;54.35;23.67;;;4.80;99.90;;;;;;5105702;28;20040;-77
2022/01/13 01:06:31;;;;;;;51.22;22.33;;;4.90;99.90;;;;;;5074369;28;20047;-81
2022/01/13 01:08:58;;;;;;;49.90;23.33;;;4.80;99.90;;;;;;5090610;28;20047;-83
2022/01/13 01:11:26;;;;;;;56.58;25.08;;;8.30;99.90;;;;;;5092087;28;20040;-79
2022/01/13 01:13:57;;;;;;;55.10;23.58;;;5.00;99.90;;;;;;5098952;28;20070;-80
2022/01/13 01:16:25;;;;;;;45.33;22.27;;;4.80;99.90;;;;;;5111662;28;20039;-79
2022/01/13 01:19:02;;;;;;;61.88;25.17;;;5.00;99.90;;;;;;5106091;28;20116;-79
2022/01/13 01:29:04;;;;;;;57.33;25.30;;;4.60;99.90;;;;;;5083001;28;20052;-82
2022/01/13 01:31:33;;;;;;;70.03;25.75;;;5.00;99.90;;;;;;5094460;28;20044;-80
2022/01/13 01:34:54;;;;;;;68.15;27.35;;;6.50;99.90;;;;;;5078671;28;20123;-77
2022/01/13 01:36:46;;;;;;;46.58;22.38;;;5.10;99.90;;;;;;5102544;28;20050;-77
2022/01/13 01:39:12;;;;;;;61.38;22.95;;;6.10;99.90;;;;;;5114085;28;20051;-76
2022/01/13 01:41:41;;;;;;;50.97;23.45;;;5.10;99.90;;;;;;5102074;28;20128;-77
2022/01/13 01:44:08;;;;;;;60.17;25.88;;;5.10;99.90;;;;;;5099614;28;20036;-77
2022/01/13 01:46:35;;;;;;;56.33;25.85;;;5.10;99.90;;;;;;5094246;28;20036;-78
2022/01/13 01:49:04;;;;;;;55.00;23.08;;;5.10;99.90;;;;;;5110668;28;20046;-78
2022/01/13 01:51:30;;;;;;;51.00;21.90;;;5.10;99.90;;;;;;5078595;28;20085;-78
2022/01/13 01:53:55;;;;;;;62.67;24.45;;;5.00;99.90;;;;;;5105322;28;20040;-78
2022/01/13 01:56:21;;;;;;;58.47;24.05;;;5.10;99.90;;;;;;5107292;28;20046;-78
2022/01/13 01:58:47;;;;;;;47.53;20.55;;;5.00;99.90;;;;;;5112278;28;20043;-78
2022/01/13 02:01:13;;;;;;;55.83;24.00;;;5.10;99.90;;;;;;5078718;28;20032;-78
2022/01/13 02:03:39;;;;;;;62.47;25.70;;;7.30;99.90;;;;;;5088015;28;20044;-77
2022/01/13 02:06:05;;;;;;;61.50;23.27;;;5.10;99.90;;;;;;5076775;28;20047;-78
2022/01/13 02:08:31;;;;;;;56.83;23.15;;;5.10;99.90;;;;;;5094896;28;20389;-78
2022/01/13 02:10:57;;;;;;;54.90;22.67;;;5.60;99.90;;;;;;5098011;28;20059;-77
2022/01/13 02:13:24;;;;;;;62.90;27.65;;;5.10;99.90;;;;;;5087637;28;20040;-77
2022/01/13 02:16:02;;;;;;;67.55;27.52;;;5.10;99.90;;;;;;5092519;28;20070;-78
2022/01/13 02:18:32;;;;;;;70.18;28.48;;;5.00;99.90;;;;;;5078185;28;20145;-77
2022/01/13 02:20:59;;;;;;;57.80;24.90;;;5.40;99.90;;;;;;5100379;28;20047;-78
2022/01/13 02:23:31;;;;;;;74.68;28.95;;;5.10;99.90;;;;;;5093103;28;20392;-78
2022/01/13 02:25:57;;;;;;;70.75;26.77;;;4.80;99.90;;;;;;5099776;28;20080;-79
2022/01/13 02:28:23;;;;;;;82.68;29.10;;;7.30;99.90;;;;;;5089926;28;20528;-79
2022/01/13 02:30:49;;;;;;;63.60;23.40;;;5.10;99.90;;;;;;5073770;28;20041;-78
2022/01/13 02:33:15;;;;;;;92.18;29.55;;;5.00;99.90;;;;;;5090697;28;20037;-78
2022/01/13 02:35:40;;;;;;;70.97;24.10;;;4.90;99.90;;;;;;5099940;28;20036;-77
2022/01/13 02:38:11;;;;;;;51.67;20.65;;;5.00;99.90;;;;;;5093250;28;20063;-77
2022/01/13 02:40:37;;;;;;;62.25;22.15;;;4.70;99.90;;;;;;5076142;28;20046;-77
2022/01/13 02:43:04;;;;;;;105.65;27.13;;;5.00;99.90;;;;;;5079016;28;20061;-77
2022/01/13 02:45:34;;;;;;;69.70;24.77;;;7.10;99.90;;;;;;5111313;28;20450;-77
2022/01/13 02:48:25;;;;;;;80.65;25.30;;;7.50;99.90;;;;;;5097351;28;20037;-76
2022/01/13 02:50:46;;;;;;;65.82;23.20;;;4.80;99.90;;;;;;5090641;28;20123;-76
2022/01/13 02:53:12;;;;;;;71.38;26.40;;;4.80;99.90;;;;;;5089526;28;20124;-77
2022/01/13 02:55:37;;;;;;;66.93;24.25;;;4.80;99.90;;;;;;5120643;27;20090;-77
2022/01/13 02:58:03;;;;;;;73.70;23.30;;;4.80;99.90;;;;;;5113273;28;20400;-77
2022/01/13 03:00:30;;;;;;;75.00;24.17;;;4.80;99.90;;;;;;5097803;28;20068;-77
2022/01/13 03:02:55;;;;;;;108.70;28.58;;;4.70;99.90;;;;;;5102070;28;20481;-77
2022/01/13 03:05:21;;;;;;;79.20;22.80;;;4.80;99.90;;;;;;5109631;28;20042;-77
2022/01/13 03:07:47;;;;;;;96.03;25.67;;;4.70;99.90;;;;;;5102851;28;20040;-77
2022/01/13 03:10:13;;;;;;;68.00;21.27;;;4.60;99.90;;;;;;5075494;28;20439;-77
2022/01/13 03:12:42;;;;;;;64.28;21.10;;;4.60;99.90;;;;;;5109924;28;20040;-77
2022/01/13 03:15:08;;;;;;;33.05;16.45;;;4.60;99.90;;;;;;5092658;28;20041;-77
2022/01/13 03:17:34;;;;;;;72.63;21.85;;;4.60;99.90;;;;;;5094098;28;20046;-77
2022/01/13 03:20:00;;;;;;;59.78;21.23;;;4.60;99.90;;;;;;5080742;28;20028;-78
2022/01/13 03:22:25;;;;;;;55.65;19.00;;;7.00;99.90;;;;;;5092699;28;20056;-77
2022/01/13 03:24:51;;;;;;;83.65;27.48;;;4.60;99.90;;;;;;5092249;28;20055;-81
2022/01/13 03:27:22;;;;;;;93.22;27.23;;;4.50;99.90;;;;;;5092852;28;20047;-81
2022/01/13 03:29:48;;;;;;;126.53;33.92;;;6.70;99.90;;;;;;5108949;28;20100;-81
2022/01/13 03:32:15;;;;;;;86.70;25.77;;;6.50;99.90;;;;;;5075808;28;20382;-81
2022/01/13 03:34:41;;;;;;;68.68;26.05;;;4.60;99.90;;;;;;5075614;28;20084;-81
2022/01/13 03:37:08;;;;;;;73.97;23.40;;;4.40;99.90;;;;;;5111930;28;20122;-80
2022/01/13 03:39:33;;;;;;;110.80;30.15;;;4.60;99.90;;;;;;5112532;28;20483;-80
2022/01/13 03:42:02;;;;;;;81.35;25.27;;;4.50;99.90;;;;;;5108216;28;20132;-81
2022/01/13 03:44:27;;;;;;;146.90;32.65;;;4.60;99.90;;;;;;5082294;28;20559;-80
2022/01/13 03:46:55;;;;;;;132.40;35.35;;;4.50;99.90;;;;;;5109098;28;20203;-80
2022/01/13 03:49:21;;;;;;;95.88;28.25;;;4.60;99.90;;;;;;5099917;28;20089;-79
2022/01/13 03:51:49;;;;;;;111.35;30.08;;;4.60;99.90;;;;;;5092182;28;20040;-79
2022/01/13 03:54:36;;;;;;;127.60;35.67;;;4.70;99.90;;;;;;5091755;28;20032;-80
2022/01/13 03:57:40;;;;;;;138.90;36.20;;;4.70;99.90;;;;;;5128321;27;20039;-79
2022/01/13 04:00:43;;;;;;;86.57;28.92;;;4.70;99.90;;;;;;5088997;28;20047;-79
2022/01/13 04:03:09;;;;;;;64.25;23.17;;;4.70;99.90;;;;;;5094616;28;20043;-79
2022/01/13 04:06:29;;;;;;;83.10;26.30;;;4.70;99.90;;;;;;5100028;28;20378;-79
2022/01/13 04:08:54;;;;;;;83.60;26.92;;;4.80;99.90;;;;;;5109413;28;20051;-79
2022/01/13 04:11:28;;;;;;;101.85;32.30;;;5.00;99.90;;;;;;5110224;28;20044;-79
2022/01/13 04:14:01;;;;;;;89.35;29.00;;;4.80;99.90;;;;;;5109864;28;20044;-81
2022/01/13 04:16:33;;;;;;;74.68;27.80;;;4.80;99.90;;;;;;5094504;28;20039;-80
2022/01/13 04:19:04;;;;;;;87.50;29.08;;;4.80;99.90;;;;;;5102507;28;20111;-80
2022/01/13 04:21:35;;;;;;;117.72;35.75;;;6.60;99.90;;;;;;5088706;28;20044;-80
2022/01/13 04:24:02;;;;;;;117.55;35.95;;;4.90;99.90;;;;;;5075116;28;20036;-81
2022/01/13 04:26:30;;;;;;;76.40;28.83;;;4.70;99.90;;;;;;5108581;28;20439;-81
2022/01/13 04:31:39;;;;;;;91.00;31.30;;;4.80;99.90;;;;;;5111958;28;20174;-81
2022/01/13 04:34:05;;;;;;;73.90;27.88;;;5.00;99.90;;;;;;5111057;28;20032;-81
2022/01/13 04:36:31;;;;;;;95.70;31.60;;;5.40;99.90;;;;;;5112114;28;20039;-80
2022/01/13 04:38:57;;;;;;;73.85;27.67;;;5.00;99.90;;;;;;5111022;28;20045;-80
2022/01/13 04:41:33;;;;;;;87.18;27.90;;;4.70;99.90;;;;;;5111219;28;20048;-80
2022/01/13 04:43:58;;;;;;;77.95;28.15;;;5.00;99.90;;;;;;5072390;28;20378;-80
2022/01/13 04:46:24;;;;;;;83.57;29.10;;;4.90;99.90;;;;;;5090234;28;20132;-78
2022/01/13 04:48:50;;;;;;;124.95;35.40;;;4.70;99.90;;;;;;5090572;28;20039;-77
2022/01/13 04:51:16;;;;;;;104.00;31.80;;;5.00;99.90;;;;;;5091963;28;20036;-77
2022/01/13 04:53:41;;;;;;;76.55;27.90;;;5.10;99.90;;;;;;5090728;28;20048;-78
2022/01/13 04:56:14;;;;;;;85.72;28.33;;;7.10;99.90;;;;;;5087972;28;20047;-77
2022/01/13 04:58:40;;;;;;;98.78;31.08;;;5.10;99.90;;;;;;5091267;28;20048;-78
2022/01/13 05:01:05;;;;;;;83.45;28.83;;;5.10;99.90;;;;;;5093031;28;20035;-79
2022/01/13 05:03:31;;;;;;;91.22;31.48;;;;;;;;;;5111352;28;20043;-77
2022/01/13 05:05:57;;;;;;;93.60;30.30;;;5.20;99.90;;;;;;5111035;28;20103;-78
2022/01/13 05:08:23;;;;;;;87.45;31.17;;;5.20;99.90;;;;;;5110380;28;20492;-77
2022/01/13 05:10:48;;;;;;;96.80;34.08;;;5.20;99.90;;;;;;5096240;28;20112;-78
2022/01/13 05:13:14;;;;;;;100.70;31.98;;;4.80;99.90;;;;;;5088009;28;20085;-78
2022/01/13 05:15:43;;;;;;;65.25;26.77;;;4.70;99.90;;;;;;5078392;28;20125;-77
2022/01/13 05:20:59;;;;;;;92.55;32.65;;;5.10;99.90;;;;;;5091556;28;20416;-77
2022/01/13 05:23:25;;;;;;;89.65;31.55;;;4.90;99.90;;;;;;5086648;28;20493;-78
2022/01/13 05:25:50;;;;;;;91.10;31.80;;;5.10;99.90;;;;;;5103912;28;20040;-78
2022/01/13 05:28:16;;;;;;;91.00;32.28;;;5.20;99.90;;;;;;5110768;28;20542;-78
2022/01/13 05:30:42;;;;;;;74.97;30.27;;;5.30;99.90;;;;;;5110040;28;20075;-79
2022/01/13 05:33:08;;;;;;;86.55;31.55;;;5.30;99.90;;;;;;5082848;28;20078;-78
2022/01/13 05:35:36;;;;;;;94.15;31.83;;;6.20;99.90;;;;;;5074093;28;20400;-78
2022/01/13 05:38:02;;;;;;;88.13;32.42;;;6.60;99.90;;;;;;5104295;28;20624;-78
2022/01/13 05:40:28;;;;;;;82.72;33.60;;;5.30;99.90;;;;;;5100228;28;20044;-79
2022/01/13 05:42:54;;;;;;;86.72;34.17;;;5.40;99.90;;;;;;5086867;28;20097;-78
2022/01/13 05:45:23;;;;;;;103.32;35.50;;;7.80;99.90;;;;;;5109417;28;20042;-81
2022/01/13 05:47:50;;;;;;;86.97;31.88;;;7.70;99.90;;;;;;5099231;28;20404;-81
2022/01/13 05:50:18;;;;;;;80.00;34.00;;;5.50;99.90;;;;;;5072680;28;20101;-81
2022/01/13 05:52:43;;;;;;;75.80;31.25;;;8.40;99.90;;;;;;5093381;28;20613;-81
2022/01/13 05:55:10;;;;;;;86.40;33.90;;;5.50;99.90;;;;;;5109771;28;20043;-81
2022/01/13 05:57:36;;;;;;;79.00;33.97;;;5.60;99.90;;;;;;5108703;28;20820;-81
2022/01/13 06:00:04;;;;;;;82.47;31.80;;;5.60;99.90;;;;;;5089681;28;20067;-83
2022/01/13 06:02:30;;;;;;;84.40;32.60;;;5.60;99.90;;;;;;5097589;28;20040;-80
2022/01/13 06:04:56;;;;;;;82.60;33.38;;;5.60;99.90;;;;;;5113059;28;20124;-80
2022/01/13 06:07:21;;;;;;;76.82;32.08;;;5.70;99.90;;;;;;5095477;28;20526;-80
2022/01/13 06:09:47;;;;;;;79.63;31.85;;;6.50;99.90;;;;;;5113622;28;20048;-81
2022/01/13 06:12:13;;;;;;;75.30;33.55;;;5.60;99.90;;;;;;5112639;28;20044;-81
2022/01/13 06:14:39;;;;;;;69.18;29.73;;;;;;;;;;5101348;28;20024;-81
2022/01/13 06:17:04;;;;;;;77.65;33.05;;;5.70;99.90;;;;;;5099310;28;20028;-82
2022/01/13 06:19:30;;;;;;;79.68;34.22;;;5.60;99.90;;;;;;5103285;28;20070;-81
2022/01/13 06:21:55;;;;;;;79.43;36.28;;;5.70;99.90;;;;;;5096890;28;20513;-81
2022/01/13 06:24:21;;;;;;;75.35;33.17;;;5.90;99.90;;;;;;5089454;28;20150;-81
2022/01/13 06:26:47;;;;;;;71.30;31.58;;;5.80;99.90;;;;;;5092885;28;20048;-79
2022/01/13 06:29:13;;;;;;;82.55;33.33;;;;;;;;;;5088142;28;20149;-87
2022/01/13 06:31:38;;;;;;;77.60;30.38;;;5.90;99.90;;;;;;5096708;28;20063;-82
2022/01/13 06:34:04;;;;;;;85.13;34.22;;;5.30;99.90;;;;;;5099279;28;20175;-82
2022/01/13 06:36:31;;;;;;;86.22;36.78;;;5.40;99.90;;;;;;5077947;28;20050;-83
2022/01/13 06:38:57;;;;;;;74.35;34.10;;;5.80;99.90;;;;;;5099696;28;20041;-83
2022/01/13 06:41:23;;;;;;;72.45;32.97;;;6.00;99.90;;;;;;5055864;28;20144;-81
2022/01/13 06:43:49;;;;;;;68.60;35.10;;;5.70;99.90;;;;;;5062176;28;20119;-83
2022/01/13 06:46:15;;;;;;;70.00;30.90;;;;;;;;;;5094302;28;20066;-82
2022/01/13 06:48:42;;;;;;;74.78;33.63;;;;;;;;;;5103553;28;20044;-76
2022/01/13 06:51:08;;;;;;;80.78;33.80;;;;;;;;;;5112509;28;20075;-79
2022/01/13 06:53:34;;;;;;;70.20;33.90;;;;;;;;;;5107501;28;20035;-79
2022/01/13 06:56:00;;;;;;;78.85;38.30;;;;;;;;;;5099003;28;20044;-79
2022/01/13 06:58:27;;;;;;;82.35;36.90;;;;;;;;;;5094287;28;20040;-80
2022/01/13 07:00:53;;;;;;;81.47;37.92;;;;;;;;;;5054779;28;20084;-79
2022/01/13 07:03:20;;;;;;;84.78;38.88;;;;;;;;;;5093141;28;20433;-78
2022/01/13 07:05:46;;;;;;;76.47;34.05;;;;;;;;;;5110872;28;20118;-79
2022/01/13 07:08:13;;;;;;;75.32;34.22;;;6.30;99.90;;;;;;5112284;28;20044;-79
2022/01/13 07:10:39;;;;;;;67.55;32.15;;;;;;;;;;5094609;28;20036;-82
2022/01/13 07:13:05;;;;;;;68.00;32.67;;;;;;;;;;5078435;28;20507;-81
2022/01/13 07:15:32;;;;;;;78.70;39.50;;;;;;;;;;5092074;28;20493;-79
2022/01/13 07:17:58;;;;;;;69.82;32.03;;;;;;;;;;5094237;28;20118;-76
2022/01/13 07:20:26;;;;;;;70.38;34.20;;;;;;;;;;5107062;28;20054;-76
2022/01/13 07:22:52;;;;;;;60.88;28.50;;;;;;;;;;5111897;28;20548;-77
2022/01/13 07:25:19;;;;;;;69.25;32.55;;;;;;;;;;5097476;28;20048;-76
2022/01/13 07:27:45;;;;;;;73.90;33.10;;;;;;;;;;5108746;28;20050;-76
2022/01/13 07:30:12;;;;;;;75.93;33.22;;;;;;;;;;5111311;28;20052;-78
2022/01/13 07:32:39;;;;;;;73.28;35.30;;;6.50;99.90;;;;;;5108319;28;20049;-75
2022/01/13 07:35:06;;;;;;;77.55;34.15;;;6.40;99.90;;;;;;5073498;28;20032;-75
2022/01/13 07:37:31;;;;;;;72.15;33.95;;;6.50;99.90;;;;;;5090864;28;20082;-78
2022/01/13 07:39:57;;;;;;;74.90;34.92;;;6.40;99.90;;;;;;5111860;28;20028;-78
2022/01/13 07:42:24;;;;;;;81.60;35.88;;;6.40;99.90;;;;;;5104452;28;20113;-77
2022/01/13 07:44:50;;;;;;;70.85;31.98;;;6.40;99.90;;;;;;5096319;28;20082;-77
2022/01/13 07:47:16;;;;;;;76.18;35.97;;;;;;;;;;5084689;28;20036;-77
2022/01/13 07:49:42;;;;;;;72.57;32.92;;;;;;;;;;5093167;28;20043;-77
2022/01/13 07:52:08;;;;;;;75.40;35.60;;;6.80;99.90;;;;;;5086194;28;20395;-78
2022/01/13 07:54:33;;;;;;;77.38;33.90;;;6.50;99.90;;;;;;5108920;28;20040;-77
2022/01/13 07:56:59;;;;;;;82.50;33.72;;;6.60;99.90;;;;;;5073855;28;20031;-78
2022/01/13 07:59:29;;;;;;;82.28;34.50;;;6.40;99.90;;;;;;5098284;28;20407;-77
2022/01/13 08:01:55;;;;;;;81.18;34.67;;;6.30;99.90;;;;;;5108231;28;20046;-77
2022/01/13 08:04:21;;;;;;;71.03;31.65;;;6.50;99.90;;;;;;5099461;28;20040;-76
2022/01/13 08:06:47;;;;;;;84.18;35.10;;;6.40;99.90;;;;;;5091570;28;20049;-76
2022/01/13 08:09:13;;;;;;;76.72;33.40;;;6.50;99.90;;;;;;5088505;28;20035;-75
2022/01/13 08:11:39;;;;;;;80.63;37.15;;;7.60;99.90;;;;;;5073989;28;20047;-75
2022/01/13 08:14:04;;;;;;;80.05;36.10;;;6.40;99.90;;;;;;5101886;28;20492;-75
2022/01/13 08:16:34;;;;;;;91.55;35.15;;;6.50;99.90;;;;;;5091760;28;20036;-77
2022/01/13 08:21:44;;;;;;;72.13;32.42;;;;;;;;;;5090704;28;20051;-78
2022/01/13 08:24:11;;;;;;;79.68;33.20;;;6.50;99.90;;;;;;5097496;28;20044;-76
2022/01/13 08:26:36;;;;;;;63.33;30.35;;;6.60;99.90;;;;;;5072302;28;20365;-77
2022/01/13 08:29:03;;;;;;;83.97;35.95;;;6.60;99.90;;;;;;5106690;28;20554;-77
2022/01/13 08:31:29;;;;;;;76.35;33.92;;;6.60;99.90;;;;;;5106338;28;20476;-79
2022/01/13 08:33:54;;;;;;;71.07;31.58;;;6.60;99.90;;;;;;5107085;28;20146;-71
2022/01/13 08:36:20;;;;;;;75.93;34.58;;;6.60;99.90;;;;;;5109576;28;20047;-72
2022/01/13 08:38:48;;;;;;;79.60;33.15;;;10.00;99.90;;;;;;5107531;28;20043;-71
2022/01/13 08:41:14;;;;;;;73.32;31.92;;;6.50;99.90;;;;;;5108445;28;20043;-72
2022/01/13 08:43:39;;;;;;;67.05;32.72;;;6.50;99.90;;;;;;5093974;28;20508;-72
2022/01/13 08:46:05;;;;;;;63.53;30.15;;;6.60;99.90;;;;;;5088096;28;20468;-73
2022/01/13 08:48:34;;;;;;;62.03;30.20;;;6.80;99.90;;;;;;5088759;28;20047;-73
2022/01/13 08:51:00;;;;;;;75.53;33.03;;;6.70;99.90;;;;;;5089921;28;20048;-78
2022/01/13 08:53:25;;;;;;;71.28;34.17;;;6.70;99.90;;;;;;5107199;28;20036;-79
2022/01/13 08:55:54;;;;;;;65.53;28.48;;;6.70;99.90;;;;;;5092462;28;20058;-77
2022/01/13 08:58:22;;;;;;;67.10;30.63;;;6.90;99.90;;;;;;5105389;28;20040;-77
2022/01/13 09:00:49;;;;;;;71.25;31.13;;;6.40;99.90;;;;;;5104043;28;20119;-78
2022/01/13 09:03:15;;;;;;;57.10;26.70;;;6.80;99.90;;;;;;5090449;28;20044;-77
2022/01/13 09:05:42;;;;;;;72.93;32.92;;;6.80;99.90;;;;;;5071344;28;20473;-77
2022/01/13 09:08:10;;;;;;;69.97;33.08;;;7.30;99.90;;;;;;5087062;28;20098;-76
2022/01/13 09:10:39;;;;;;;64.38;30.83;;;6.80;99.90;;;;;;5099946;28;20043;-76
2022/01/13 09:13:10;;;;;;;60.53;30.95;;;8.00;99.90;;;;;;5070292;28;20058;-76
2022/01/13 09:15:39;;;;;;;72.50;32.67;;;6.90;99.90;;;;;;5098946;28;20046;-76
2022/01/13 09:18:14;;;;;;;61.95;30.85;;;6.80;99.90;;;;;;5084699;28;20045;-76
2022/01/13 09:20:41;;;;;;;72.60;32.33;;;6.80;99.90;;;;;;5067900;28;20474;-77
2022/01/13 09:23:07;;;;;;;84.85;33.75;;;6.70;99.90;;;;;;5077014;28;20887;-76
2022/01/13 09:25:34;;;;;;;58.65;28.77;;;7.00;99.90;;;;;;5088562;28;20052;-76
2022/01/13 09:28:00;;;;;;;69.18;29.55;;;6.80;99.90;;;;;;5066037;28;20079;-76
2022/01/13 09:30:26;;;;;;;60.53;29.48;;;6.60;99.90;;;;;;5088438;28;20039;-77
2022/01/13 09:32:52;;;;;;;64.22;26.92;;;6.80;99.90;;;;;;5088457;28;20052;-77
2022/01/13 09:35:18;;;;;;;62.03;28.95;;;7.70;99.90;;;;;;5105143;28;20036;-77
2022/01/13 09:37:44;;;;;;;56.60;29.17;;;;;;;;;;5104756;28;20047;-77
2022/01/13 09:40:12;;;;;;;67.10;28.40;;;;;;;;;;5096321;28;20276;-77
2022/01/13 09:42:40;;;;;;;62.65;30.23;;;6.90;99.90;;;;;;5077965;28;20843;-76
2022/01/13 09:45:07;;;;;;;64.57;32.95;;;6.90;99.90;;;;;;5105283;28;20439;-76
2022/01/13 09:47:35;;;;;;;65.32;29.80;;;7.10;99.90;;;;;;5075478;28;20062;-76
2022/01/13 09:50:04;;;;;;;56.28;28.55;;;6.80;99.90;;;;;;5107264;28;20047;-76
2022/01/13 09:52:30;;;;;;;56.85;27.40;;;7.10;99.90;;;;;;5095561;28;20407;-76
2022/01/13 09:54:56;;;;;;;57.53;29.52;;;7.00;99.90;;;;;;5094091;28;20040;-76
2022/01/13 09:57:21;;;;;;;56.47;28.48;;;7.10;99.90;;;;;;5095020;28;20046;-76
2022/01/13 09:59:47;;;;;;;56.60;27.70;;;7.20;99.90;;;;;;5092603;28;20467;-76
2022/01/13 10:02:13;;;;;;;46.38;24.75;;;9.00;99.90;;;;;;5102304;28;20043;-77
2022/01/13 10:04:53;;;;;;;53.08;26.58;;;8.10;99.90;;;;;;5112934;28;20075;-76
2022/01/13 10:07:38;;;;;;;48.38;25.67;;;7.10;99.90;;;;;;5103447;28;20039;-76
2022/01/13 10:10:07;;;;;;;45.77;25.33;;;7.40;99.90;;;;;;5107314;28;20093;-77
2022/01/13 10:12:38;;;;;;;47.92;25.80;;;7.30;99.90;;;;;;5081990;28;20475;-77
2022/01/13 10:18:03;;;;;;;49.63;25.63;;;7.20;99.90;;;;;;5107062;28;20044;-75
2022/01/13 10:20:29;;;;;;;48.03;26.00;;;7.30;99.90;;;;;;5096756;28;20047;-77
2022/01/13 10:22:54;;;;;;;47.50;25.10;;;7.60;99.90;;;;;;5105265;28;20385;-76
2022/01/13 10:25:26;;;;;;;54.25;25.15;;;7.40;99.90;;;;;;5081488;28;20048;-76
2022/01/13 10:27:52;;;;;;;46.75;25.73;;;7.20;99.90;;;;;;5099864;28;20047;-76
2022/01/13 10:30:18;;;;;;;48.72;26.15;;;7.20;99.90;;;;;;5103461;28;20055;-77
2022/01/13 10:32:45;;;;;;;44.50;26.23;;;7.40;99.90;;;;;;5074652;28;20106;-76
2022/01/13 10:35:15;;;;;;;45.38;24.35;;;7.20;99.90;;;;;;5091644;28;20036;-76
2022/01/13 10:37:46;;;;;;;47.05;25.05;;;7.40;99.90;;;;;;5090292;28;20122;-76
2022/01/13 10:40:29;;;;;;;45.60;23.55;;;7.40;99.90;;;;;;5082325;28;20040;-73
2022/01/13 10:45:46;;;;;;;41.03;22.08;;;7.20;99.90;;;;;;5112606;28;20515;-75
2022/01/13 10:48:15;;;;;;;37.78;22.15;;;7.40;99.90;;;;;;5094174;28;20144;-75
2022/01/13 10:50:52;;;;;;;41.47;23.02;;;7.30;99.90;;;;;;5093047;28;20043;-76
2022/01/13 10:53:29;;;;;;;43.35;24.63;;;7.40;99.90;;;;;;5077205;28;20032;-75
2022/01/13 10:56:01;;;;;;;46.63;25.27;;;7.40;99.90;;;;;;5100657;28;20109;-76
2022/01/13 10:58:40;;;;;;;47.45;26.20;;;7.30;99.90;;;;;;5072817;28;20598;-76
2022/01/13 11:01:09;;;;;;;43.58;23.63;;;7.30;99.90;;;;;;5072037;28;20035;-76
2022/01/13 11:03:39;;;;;;;50.05;24.08;;;7.30;99.90;;;;;;5098707;28;20055;-77
2022/01/13 11:06:08;;;;;;;47.45;24.45;;;7.10;99.90;;;;;;5105637;28;20932;-77
2022/01/13 11:08:44;;;;;;;49.63;25.98;;;7.10;99.90;;;;;;5092433;28;20064;-77
2022/01/13 11:11:22;;;;;;;41.78;23.83;;;7.40;99.90;;;;;;5101492;28;20056;-78
2022/01/13 11:13:54;;;;;;;38.63;24.05;;;7.20;99.90;;;;;;5099775;28;20043;-76
2022/01/13 11:16:24;;;;;;;43.17;24.98;;;7.30;99.90;;;;;;5087853;28;20044;-75
2022/01/13 11:18:51;;;;;;;46.95;26.48;;;7.10;99.90;;;;;;5090951;28;20135;-78
2022/01/13 11:21:17;;;;;;;37.92;22.15;;;;;;;;;;5091557;28;20051;-77
2022/01/13 11:23:49;;;;;;;43.47;21.55;;;6.70;99.90;;;;;;5079187;28;20455;-75
2022/01/13 11:26:16;;;;;;;47.90;22.70;;;7.20;99.90;;;;;;5088870;28;20049;-74
2022/01/13 11:28:42;;;;;;;41.70;23.08;;;8.70;99.90;;;;;;5088210;28;20044;-76
2022/01/13 11:31:09;;;;;;;44.92;23.05;;;7.20;99.90;;;;;;5071532;28;20040;-76
2022/01/13 11:33:36;;;;;;;49.72;23.30;;;7.10;99.90;;;;;;5104941;28;20050;-76
2022/01/13 11:36:03;;;;;;;44.70;23.88;;;7.20;99.90;;;;;;5074447;28;20047;-76
2022/01/13 11:38:30;;;;;;;45.92;22.83;;;7.50;99.90;;;;;;5092353;28;20115;-74
2022/01/13 11:41:05;;;;;;;37.60;22.08;;;7.20;99.90;;;;;;5081272;28;20044;-74
2022/01/13 11:43:32;;;;;;;;;;;7.20;99.90;;;;;;5071761;28;20085;-74
2022/01/13 11:46:31;;;;;;;40.47;23.15;;;7.40;99.90;;;;;;5088663;28;20412;-74
2022/01/13 11:49:08;;;;;;;44.95;23.52;;;6.80;99.90;;;;;;5038183;28;20087;-74
2022/01/13 11:51:56;;;;;;;44.95;25.13;;;7.80;99.90;;;;;;5087762;28;20036;-74
2022/01/13 11:54:33;;;;;;;43.15;22.95;;;7.30;99.90;;;;;;5075142;28;20067;-74
2022/01/13 11:57:15;;;;;;;43.47;22.65;;;7.30;99.90;;;;;;5074366;28;20130;-74
2022/01/13 12:00:00;;;;;;;41.47;21.00;;;7.30;99.90;;;;;;5077480;28;20032;-73
2022/01/13 12:02:38;;;;;;;;;;;7.40;99.90;;;;;;5088956;28;20131;-74
2022/01/13 12:05:15;;;;;;;40.22;20.40;;;7.90;99.90;;;;;;5053592;28;19916;-73
2022/01/13 12:07:44;;;;;;;35.75;18.38;;;;;;;;;;5081492;28;20036;-73
2022/01/13 12:10:30;;;;;;;34.90;19.33;;;7.90;99.90;;;;;;5070732;28;20441;-76
2022/01/13 12:12:56;;;;;;;35.22;17.17;;;7.70;99.90;;;;;;5074216;28;20047;-73
2022/01/13 12:15:28;;;;;;;33.15;17.45;;;7.80;99.90;;;;;;5108868;28;20044;-73
2022/01/13 12:18:02;;;;;;;28.55;15.52;;;7.90;99.90;;;;;;5090595;28;20051;-73
2022/01/13 12:23:17;;;;;;;29.90;16.23;;;8.20;99.90;;;;;;5091042;28;20461;-73
2022/01/13 12:25:44;;;;;;;23.05;14.55;;;8.00;99.90;;;;;;5090886;28;20048;-73
2022/01/13 12:28:19;;;;;;;28.55;14.82;;;8.20;99.90;;;;;;5066022;28;20037;-74
2022/01/13 12:30:45;;;;;;;;;;;8.10;99.90;;;;;;5055228;28;20036;-73
2022/01/13 12:33:11;;;;;;;31.58;14.48;;;7.90;99.90;;;;;;5061614;28;19931;-73
2022/01/13 12:35:37;;;;;;;30.85;15.48;;;8.30;99.90;;;;;;5093384;28;20036;-73
2022/01/13 12:38:17;;;;;;;28.13;13.95;;;8.20;99.90;;;;;;5102694;28;20082;-73
2022/01/13 12:41:01;;;;;;;30.08;14.52;;;8.30;99.90;;;;;;5098903;28;20096;-72
2022/01/13 12:43:50;;;;;;;22.17;12.18;;;7.90;99.90;;;;;;5094710;28;20549;-72
2022/01/13 12:46:28;;;;;;;30.80;14.93;;;8.20;99.90;;;;;;5109294;28;20035;-71
2022/01/13 12:48:55;;;;;;;25.50;14.02;;;8.30;99.90;;;;;;5081524;28;20058;-70
2022/01/13 12:51:24;;;;;;;28.65;14.15;;;8.00;99.90;;;;;;5091017;28;20075;-71
2022/01/13 12:53:52;;;;;;;27.63;12.95;;;8.20;99.90;;;;;;5091237;28;20113;-72
2022/01/13 12:56:23;;;;;;;22.58;12.77;;;8.00;99.90;;;;;;5108255;28;20040;-72
2022/01/13 12:58:56;;;;;;;27.45;13.50;;;8.10;99.90;;;;;;5102479;28;20040;-74
2022/01/13 13:01:24;;;;;;;27.13;14.70;;;8.00;99.90;;;;;;5110764;28;20073;-72
2022/01/13 13:04:02;;;;;;;26.90;14.65;;;8.20;99.90;;;;;;5053756;28;20048;-75
2022/01/13 13:06:29;;;;;;;41.78;26.27;;;9.20;99.90;;;;;;5070089;28;20044;-75
2022/01/13 13:09:02;;;;;;;23.73;12.93;;;8.60;99.90;;;;;;5070337;28;20055;-74
2022/01/13 13:11:38;;;;;;;26.50;14.02;;;8.40;99.90;;;;;;5056635;28;20075;-75
2022/01/13 13:14:12;;;;;;;29.48;11.88;;;9.90;99.90;;;;;;5073623;28;20072;-74
2022/01/13 13:16:45;;;;;;;27.42;12.43;;;8.20;99.90;;;;;;5081224;28;20046;-74
2022/01/13 13:19:12;;;;;;;26.80;12.70;;;8.30;99.90;;;;;;5095788;28;20036;-74
2022/01/13 13:21:38;;;;;;;25.13;12.48;;;;;;;;;;5095836;28;20484;-74
2022/01/13 13:24:04;;;;;;;27.13;12.60;;;8.30;99.90;;;;;;5093416;28;20089;-74
2022/01/13 13:26:30;;;;;;;21.55;10.73;;;8.50;99.90;;;;;;5101887;28;20509;-74